createdAt,value
2019-01-24T00:00:33.095Z,-7.34
2019-01-24T00:03:01.812Z,-7.35
2019-01-24T00:05:30.512Z,-7.55
2019-01-24T00:07:59.126Z,-7.49
2019-01-24T00:10:27.791Z,-7.30
2019-01-24T00:12:56.490Z,-7.35
2019-01-24T00:15:25.112Z,-7.26
2019-01-24T00:17:53.736Z,-7.31
2019-01-24T00:20:22.455Z,-7.27
2019-01-24T00:22:51.060Z,-7.14
2019-01-24T00:25:19.739Z,-7.23
2019-01-24T00:27:48.364Z,-7.11
2019-01-24T00:30:17.352Z,-7.08
2019-01-24T00:32:46.034Z,-6.93
2019-01-24T00:35:14.741Z,-6.90
2019-01-24T00:37:43.531Z,-6.86
2019-01-24T00:40:15.208Z,-6.79
2019-01-24T00:42:43.899Z,-6.68
2019-01-24T00:45:12.517Z,-6.87
2019-01-24T00:47:41.214Z,-6.77
2019-01-24T00:50:12.311Z,-6.59
2019-01-24T00:52:40.979Z,-6.62
2019-01-24T00:55:12.210Z,-6.64
2019-01-24T00:57:40.819Z,-6.70
2019-01-24T01:00:12.397Z,-6.67
2019-01-24T01:02:41.031Z,-6.54
2019-01-24T01:05:12.189Z,-6.39
2019-01-24T01:07:40.867Z,-6.53
2019-01-24T01:10:10.878Z,-6.68
2019-01-24T01:12:39.500Z,-6.72
2019-01-24T01:15:11.081Z,-6.67
2019-01-24T01:17:39.793Z,-6.57
2019-01-24T01:20:13.753Z,-6.34
2019-01-24T01:22:42.527Z,-6.39
2019-01-24T01:25:12.603Z,-6.38
2019-01-24T01:27:41.295Z,-6.34
2019-01-24T01:30:18.856Z,-6.33
2019-01-24T01:32:49.211Z,-6.36
2019-01-24T01:35:17.835Z,-6.35
2019-01-24T01:37:46.499Z,-6.33
2019-01-24T01:40:19.833Z,-6.43
2019-01-24T01:42:48.939Z,-6.31
2019-01-24T01:45:21.937Z,-6.34
2019-01-24T01:47:50.712Z,-6.30
2019-01-24T01:50:24.150Z,-6.25
2019-01-24T01:52:53.676Z,-6.23
2019-01-24T01:55:23.780Z,-6.24
2019-01-24T01:57:52.470Z,-6.27
2019-01-24T02:00:23.182Z,-6.23
2019-01-24T02:02:51.864Z,-6.16
2019-01-24T02:05:20.546Z,-6.17
2019-01-24T02:07:50.456Z,-6.12
2019-01-24T02:10:21.063Z,-6.16
2019-01-24T02:12:49.685Z,-6.23
2019-01-24T02:15:19.205Z,-6.09
2019-01-24T02:17:47.913Z,-6.05
2019-01-24T02:20:18.858Z,-6.05
2019-01-24T02:22:47.568Z,-6.14
2019-01-24T02:25:16.237Z,-6.12
2019-01-24T02:27:44.951Z,-6.13
2019-01-24T02:30:16.541Z,-6.15
2019-01-24T02:32:45.230Z,-6.39
2019-01-24T02:35:13.871Z,-6.35
2019-01-24T02:37:42.550Z,-6.32
2019-01-24T02:40:11.570Z,-6.47
2019-01-24T02:42:40.243Z,-6.46
2019-01-24T02:45:12.275Z,-6.35
2019-01-24T02:47:40.975Z,-6.21
2019-01-24T02:50:12.633Z,-6.16
2019-01-24T02:52:41.280Z,-6.10
2019-01-24T02:55:12.668Z,-6.07
2019-01-24T02:57:41.308Z,-5.98
2019-01-24T03:00:20.926Z,-6.03
2019-01-24T03:02:50.024Z,-6.26
2019-01-24T03:05:20.088Z,-6.26
2019-01-24T03:07:49.631Z,-6.33
2019-01-24T03:10:18.377Z,-6.38
2019-01-24T03:12:47.218Z,-6.35
2019-01-24T03:15:20.632Z,-6.33
2019-01-24T03:17:49.381Z,-6.34
2019-01-24T03:20:18.731Z,-6.27
2019-01-24T03:22:47.871Z,-6.19
2019-01-24T03:25:17.587Z,-6.15
2019-01-24T03:27:46.486Z,-6.02
2019-01-24T03:30:17.330Z,-5.85
2019-01-24T03:32:45.998Z,-5.88
2019-01-24T03:35:22.703Z,-5.88
2019-01-24T03:37:51.342Z,-5.98
2019-01-24T03:40:20.000Z,-6.11
2019-01-24T03:42:50.306Z,-6.04
2019-01-24T03:45:19.122Z,-6.25
2019-01-24T03:47:47.713Z,-6.26
2019-01-24T03:50:21.296Z,-6.16
2019-01-24T03:52:50.524Z,-6.14
2019-01-24T03:55:21.280Z,-6.16
2019-01-24T03:57:49.977Z,-6.07
2019-01-24T04:00:21.449Z,-6.06
2019-01-24T04:02:50.079Z,-6.04
2019-01-24T04:05:19.487Z,-5.96
2019-01-24T04:07:48.197Z,-5.97
2019-01-24T04:10:21.526Z,-6.10
2019-01-24T04:12:50.266Z,-6.17
2019-01-24T04:15:21.187Z,-6.14
2019-01-24T04:17:49.875Z,-6.03
2019-01-24T04:20:18.523Z,-6.11
2019-01-24T04:22:47.270Z,-6.02
2019-01-24T04:25:15.934Z,-5.97
2019-01-24T04:27:44.661Z,-5.97
2019-01-24T04:30:16.069Z,-5.84
2019-01-24T04:32:44.745Z,-5.64
2019-01-24T04:35:19.635Z,-5.77
2019-01-24T04:37:44.174Z,-5.71
2019-01-24T04:40:17.770Z,-5.68
2019-01-24T04:42:46.448Z,-5.62
2019-01-24T04:45:16.677Z,-5.73
2019-01-24T04:47:45.363Z,-5.84
2019-01-24T04:50:15.967Z,-5.78
2019-01-24T04:52:44.603Z,-5.71
2019-01-24T04:55:15.605Z,-5.70
2019-01-24T04:57:44.271Z,-5.71
2019-01-24T05:00:18.735Z,-5.73
2019-01-24T05:02:47.356Z,-5.75
2019-01-24T05:05:16.045Z,-5.68
2019-01-24T05:07:44.696Z,-5.63
2019-01-24T05:10:13.999Z,-5.64
2019-01-24T05:12:42.690Z,-5.77
2019-01-24T05:15:11.355Z,-5.81
2019-01-24T05:17:40.031Z,-5.74
2019-01-24T05:20:13.555Z,-5.75
2019-01-24T05:22:42.430Z,-5.66
2019-01-24T05:25:13.545Z,-5.87
2019-01-24T05:27:42.327Z,-5.86
2019-01-24T05:30:20.002Z,-5.80
2019-01-24T05:32:48.619Z,-5.79
2019-01-24T05:35:17.299Z,-5.69
2019-01-24T05:37:47.556Z,-5.68
2019-01-24T05:40:16.183Z,-5.81
2019-01-24T05:42:44.893Z,-5.71
2019-01-24T05:45:14.516Z,-5.67
2019-01-24T05:47:43.210Z,-5.70
2019-01-24T05:50:13.649Z,-5.71
2019-01-24T05:52:42.314Z,-5.77
2019-01-24T05:55:14.742Z,-5.77
2019-01-24T05:57:43.404Z,-5.76
2019-01-24T06:00:16.808Z,-5.77
2019-01-24T06:02:45.514Z,-5.78
2019-01-24T06:05:14.445Z,-5.73
2019-01-24T06:07:43.153Z,-5.75
2019-01-24T06:10:14.961Z,-5.64
2019-01-24T06:12:43.544Z,-5.60
2019-01-24T06:15:15.033Z,-5.55
2019-01-24T06:17:45.288Z,-5.55
2019-01-24T06:20:14.897Z,-5.56
2019-01-24T06:22:43.514Z,-5.49
2019-01-24T06:25:14.419Z,-5.43
2019-01-24T06:27:43.412Z,-5.41
2019-01-24T06:30:20.252Z,-5.37
2019-01-24T06:32:48.963Z,-5.29
2019-01-24T06:35:17.598Z,-5.27
2019-01-24T06:37:46.217Z,-5.38
2019-01-24T06:40:16.608Z,-5.41
2019-01-24T06:42:45.295Z,-5.34
2019-01-24T06:45:53.611Z,-5.32
2019-01-24T06:48:22.718Z,-5.35
2019-01-24T06:50:51.422Z,-5.35
2019-01-24T06:53:20.026Z,-5.33
2019-01-24T06:55:48.719Z,-5.30
2019-01-24T06:58:17.369Z,-5.33
2019-01-24T07:00:46.065Z,-5.36
2019-01-24T07:03:14.691Z,-5.44
2019-01-24T07:05:43.335Z,-5.39
2019-01-24T07:08:12.035Z,-5.29
2019-01-24T07:10:40.633Z,-5.20
2019-01-24T07:13:09.273Z,-5.16
2019-01-24T07:15:37.960Z,-4.96
2019-01-24T07:18:06.600Z,-5.11
2019-01-24T07:20:35.293Z,-5.06
2019-01-24T07:23:03.976Z,-4.97
2019-01-24T07:25:32.658Z,-5.02
2019-01-24T07:28:01.288Z,-5.18
2019-01-24T07:30:29.975Z,-5.14
2019-01-24T07:32:59.731Z,-5.11
2019-01-24T07:35:28.529Z,-5.09
2019-01-24T07:37:57.154Z,-5.09
2019-01-24T07:40:25.991Z,-5.11
2019-01-24T07:42:54.632Z,-5.13
2019-01-24T07:45:32.300Z,-5.10
2019-01-24T07:48:00.956Z,-5.08
2019-01-24T07:50:29.601Z,-5.04
2019-01-24T07:52:58.307Z,-5.00
2019-01-24T07:55:26.956Z,-5.01
2019-01-24T07:57:55.643Z,-4.90
2019-01-24T08:00:28.976Z,-4.84
2019-01-24T08:02:57.691Z,-4.79
2019-01-24T08:05:28.488Z,-4.78
2019-01-24T08:07:57.108Z,-4.65
2019-01-24T08:10:25.846Z,-4.65
2019-01-24T08:12:54.615Z,-4.39
2019-01-24T08:15:24.142Z,-4.53
2019-01-24T08:17:52.873Z,-4.56
2019-01-24T08:20:23.670Z,-4.57
2019-01-24T08:22:52.288Z,-4.54
2019-01-24T08:25:21.016Z,-4.54
2019-01-24T08:27:49.658Z,-4.50
2019-01-24T08:30:26.862Z,-4.46
2019-01-24T08:32:55.592Z,-4.43
2019-01-24T08:35:24.589Z,-4.37
2019-01-24T08:37:53.623Z,-4.26
2019-01-24T08:40:24.383Z,-4.08
2019-01-24T08:42:53.071Z,-4.39
2019-01-24T08:45:23.155Z,-4.34
2019-01-24T08:47:51.791Z,-4.30
2019-01-24T08:50:25.681Z,-4.14
2019-01-24T08:52:57.495Z,-4.03
2019-01-24T08:55:29.220Z,-4.04
2019-01-24T08:57:57.887Z,-4.35
2019-01-24T09:00:26.508Z,-4.41
2019-01-24T09:02:55.215Z,-4.42
2019-01-24T09:05:24.053Z,-4.09
2019-01-24T09:07:52.811Z,-3.97
2019-01-24T09:10:24.051Z,-3.80
2019-01-24T09:12:52.735Z,-3.72
2019-01-24T09:15:21.438Z,-3.74
2019-01-24T09:17:50.061Z,-3.52
2019-01-24T09:20:20.318Z,-3.57
2019-01-24T09:22:54.982Z,-3.68
2019-01-24T09:25:19.469Z,-3.32
2019-01-24T09:27:48.166Z,-3.44
2019-01-24T09:30:22.380Z,-3.40
2019-01-24T09:32:51.082Z,-3.06
2019-01-24T09:35:19.807Z,-3.08
2019-01-24T09:37:48.481Z,-3.34
2019-01-24T09:40:19.383Z,-3.15
2019-01-24T09:42:48.026Z,-3.55
2019-01-24T09:45:21.786Z,-3.43
2019-01-24T09:47:50.502Z,-3.19
2019-01-24T09:50:21.783Z,-3.14
2019-01-24T09:52:50.403Z,-3.38
2019-01-24T09:55:19.042Z,-3.16
2019-01-24T09:57:47.768Z,-2.93
2019-01-24T10:00:19.053Z,-3.08
2019-01-24T10:02:47.682Z,-3.10
2019-01-24T10:05:17.277Z,-2.75
2019-01-24T10:07:46.044Z,-2.72
2019-01-24T10:10:17.367Z,-2.84
2019-01-24T10:12:46.026Z,-2.77
2019-01-24T10:15:16.711Z,-2.73
2019-01-24T10:17:45.362Z,-2.76
2019-01-24T10:20:17.095Z,-3.11
2019-01-24T10:22:45.714Z,-2.78
2019-01-24T10:25:17.308Z,-2.29
2019-01-24T10:27:46.011Z,-2.51
2019-01-24T10:30:17.569Z,-2.53
2019-01-24T10:32:46.401Z,-2.56
2019-01-24T10:35:15.215Z,-2.47
2019-01-24T10:37:43.865Z,-2.48
2019-01-24T10:40:18.509Z,-2.60
2019-01-24T10:42:47.123Z,-2.23
2019-01-24T10:45:18.103Z,-2.49
2019-01-24T10:47:46.770Z,-2.29
2019-01-24T10:50:17.688Z,-2.37
2019-01-24T10:52:46.373Z,-2.25
2019-01-24T10:55:19.746Z,-2.19
2019-01-24T10:57:48.743Z,-2.11
2019-01-24T11:00:30.037Z,-2.19
2019-01-24T11:02:58.709Z,-2.39
2019-01-24T11:05:27.380Z,-2.57
2019-01-24T11:07:56.088Z,-2.53
2019-01-24T11:10:24.773Z,-2.20
2019-01-24T11:12:53.473Z,-2.00
2019-01-24T11:15:25.554Z,-2.12
2019-01-24T11:17:54.248Z,-1.92
2019-01-24T11:20:22.940Z,-1.73
2019-01-24T11:22:51.595Z,-1.63
2019-01-24T11:25:22.564Z,-2.00
2019-01-24T11:27:51.269Z,-1.99
2019-01-24T11:30:25.376Z,-1.68
2019-01-24T11:32:54.119Z,-1.76
2019-01-24T11:35:25.579Z,-1.72
2019-01-24T11:37:54.277Z,-1.53
2019-01-24T11:40:22.893Z,-1.56
2019-01-24T11:42:52.623Z,-1.72
2019-01-24T11:45:36.018Z,-1.68
2019-01-24T11:48:06.183Z,-1.97
2019-01-24T11:50:34.816Z,-1.64
2019-01-24T11:53:03.515Z,-1.87
2019-01-24T11:55:32.144Z,-1.72
2019-01-24T11:58:00.850Z,-1.50
2019-01-24T12:00:40.985Z,-1.31
2019-01-24T12:03:09.610Z,-1.47
2019-01-24T12:05:38.324Z,-1.48
2019-01-24T12:08:07.763Z,-1.31
2019-01-24T12:10:36.481Z,-1.30
2019-01-24T12:13:05.298Z,-1.03
2019-01-24T12:15:33.930Z,-1.11
2019-01-24T12:18:02.634Z,-1.43
2019-01-24T12:20:31.256Z,-1.38
2019-01-24T12:22:59.967Z,-1.10
2019-01-24T12:25:28.593Z,-1.05
2019-01-24T12:27:57.312Z,-1.05
2019-01-24T12:30:33.857Z,-0.93
2019-01-24T12:33:03.338Z,-0.93
2019-01-24T12:35:31.969Z,-0.88
2019-01-24T12:38:00.658Z,-0.80
2019-01-24T12:40:29.279Z,-0.72
2019-01-24T12:42:57.935Z,-0.77
2019-01-24T12:45:34.744Z,-0.58
2019-01-24T12:48:03.374Z,-0.69
2019-01-24T12:50:33.041Z,-0.52
2019-01-24T12:53:01.689Z,-0.48
2019-01-24T12:55:30.478Z,-0.05
2019-01-24T12:57:59.110Z,-0.16
2019-01-24T13:00:30.657Z,-0.26
2019-01-24T13:02:59.289Z,-0.39
2019-01-24T13:05:28.025Z,-0.43
2019-01-24T13:07:56.999Z,-0.68
2019-01-24T13:10:27.604Z,-0.41
2019-01-24T13:12:56.290Z,-0.32
2019-01-24T13:15:27.590Z,-0.50
2019-01-24T13:17:56.222Z,-0.46
2019-01-24T13:20:24.898Z,-0.68
2019-01-24T13:22:53.585Z,-0.48
2019-01-24T13:25:27.974Z,-0.23
2019-01-24T13:27:56.673Z,-0.19
2019-01-24T13:30:27.711Z,-0.10
2019-01-24T13:32:56.429Z,-0.17
2019-01-24T13:35:25.028Z,-0.22
2019-01-24T13:37:53.727Z,-0.32
2019-01-24T13:40:24.708Z,-0.28
2019-01-24T13:42:53.410Z,-0.48
2019-01-24T13:45:25.002Z,-0.54
2019-01-24T13:47:53.649Z,-0.64
2019-01-24T13:50:22.345Z,-0.65
2019-01-24T13:52:51.113Z,-0.54
2019-01-24T13:55:19.764Z,-0.50
2019-01-24T13:57:48.403Z,-0.55
2019-01-24T14:00:22.693Z,-0.75
2019-01-24T14:02:54.295Z,-0.72
2019-01-24T14:05:22.991Z,-0.97
2019-01-24T14:07:51.689Z,-0.91
2019-01-24T14:10:20.407Z,-0.85
2019-01-24T14:12:49.152Z,-0.81
2019-01-24T14:15:19.374Z,-0.87
2019-01-24T14:17:47.989Z,-0.81
2019-01-24T14:20:18.922Z,-0.85
2019-01-24T14:22:47.734Z,-0.90
2019-01-24T14:25:18.804Z,-1.04
2019-01-24T14:27:47.520Z,-1.08
2019-01-24T14:30:19.333Z,-1.03
2019-01-24T14:32:48.109Z,-1.15
2019-01-24T14:35:16.735Z,-1.14
2019-01-24T14:37:45.432Z,-1.11
2019-01-24T14:40:15.307Z,-1.27
2019-01-24T14:42:44.015Z,-1.31
2019-01-24T14:45:18.374Z,-1.43
2019-01-24T14:47:47.054Z,-1.43
2019-01-24T14:50:18.393Z,-1.37
2019-01-24T14:52:47.186Z,-1.19
2019-01-24T14:55:15.822Z,-1.30
2019-01-24T14:57:44.523Z,-1.41
2019-01-24T15:00:22.030Z,-1.54
2019-01-24T15:02:50.755Z,-1.50
2019-01-24T15:05:19.367Z,-1.49
2019-01-24T15:07:48.054Z,-1.51
2019-01-24T15:10:16.978Z,-1.48
2019-01-24T15:12:50.214Z,-1.50
2019-01-24T15:15:22.187Z,-1.51
2019-01-24T15:17:52.445Z,-1.59
2019-01-24T15:20:22.920Z,-1.58
2019-01-24T15:22:51.552Z,-1.61
2019-01-24T15:25:24.545Z,-1.55
2019-01-24T15:27:53.173Z,-1.60
2019-01-24T15:30:24.740Z,-1.65
2019-01-24T15:32:53.457Z,-1.66
2019-01-24T15:35:22.131Z,-1.78
2019-01-24T15:37:54.671Z,-1.78
2019-01-24T15:40:30.096Z,-1.81
2019-01-24T15:43:00.526Z,-1.94
2019-01-24T15:45:30.925Z,-1.96
2019-01-24T15:48:02.234Z,-1.94
2019-01-24T15:50:30.942Z,-1.95
2019-01-24T15:53:01.159Z,-1.95
2019-01-24T15:55:32.542Z,-1.95
2019-01-24T15:58:01.236Z,-1.96
2019-01-24T16:00:38.906Z,-2.06
2019-01-24T16:03:07.572Z,-2.17
2019-01-24T16:05:36.249Z,-2.07
2019-01-24T16:08:05.230Z,-2.07
2019-01-24T16:10:40.033Z,-1.97
2019-01-24T16:13:08.655Z,-2.03
2019-01-24T16:15:39.414Z,-2.13
2019-01-24T16:18:10.096Z,-2.26
2019-01-24T16:20:38.832Z,-2.24
2019-01-24T16:23:07.460Z,-2.36
2019-01-24T16:25:36.647Z,-2.42
2019-01-24T16:28:06.142Z,-2.40
2019-01-24T16:30:35.963Z,-2.41
2019-01-24T16:33:07.272Z,-2.51
2019-01-24T16:35:35.965Z,-2.49
2019-01-24T16:38:09.245Z,-2.57
2019-01-24T16:40:35.125Z,-2.51
2019-01-24T16:43:05.297Z,-2.56
2019-01-24T16:45:33.992Z,-2.59
2019-01-24T16:48:05.286Z,-2.64
2019-01-24T16:50:33.875Z,-2.60
2019-01-24T16:53:02.571Z,-2.71
2019-01-24T16:55:31.222Z,-2.73
2019-01-24T16:58:00.037Z,-2.69
2019-01-24T17:00:37.866Z,-2.63
2019-01-24T17:03:06.977Z,-2.77
2019-01-24T17:05:35.748Z,-2.53
2019-01-24T17:08:06.163Z,-2.50
2019-01-24T17:10:34.827Z,-2.65
2019-01-24T17:13:04.608Z,-2.91
2019-01-24T17:15:33.200Z,-2.90
2019-01-24T17:18:01.899Z,-2.86
2019-01-24T17:20:32.015Z,-2.84
2019-01-24T17:23:00.725Z,-2.82
2019-01-24T17:25:33.858Z,-2.83
2019-01-24T17:28:02.553Z,-2.81
2019-01-24T17:30:32.616Z,-2.88
2019-01-24T17:33:05.830Z,-2.99
2019-01-24T17:35:34.579Z,-3.07
2019-01-24T17:38:03.277Z,-3.06
2019-01-24T17:40:36.419Z,-3.05
2019-01-24T17:43:06.014Z,-3.03
2019-01-24T17:45:34.722Z,-3.14
2019-01-24T17:48:03.366Z,-3.08
2019-01-24T17:50:34.586Z,-3.07
2019-01-24T17:53:03.220Z,-3.25
2019-01-24T17:55:37.203Z,-3.35
2019-01-24T17:58:07.714Z,-3.42
2019-01-24T18:00:40.808Z,-3.46
2019-01-24T18:03:13.114Z,-3.38
2019-01-24T18:05:41.534Z,-3.30
2019-01-24T18:08:10.277Z,-3.27
2019-01-24T18:10:38.955Z,-3.27
2019-01-24T18:13:07.723Z,-3.26
2019-01-24T18:15:37.590Z,-3.21
2019-01-24T18:18:09.787Z,-3.19
2019-01-24T18:20:39.652Z,-3.09
2019-01-24T18:23:11.028Z,-2.98
2019-01-24T18:25:39.752Z,-3.04
2019-01-24T18:28:10.385Z,-3.12
2019-01-24T18:30:41.894Z,-3.08
2019-01-24T18:33:12.917Z,-3.03
2019-01-24T18:35:41.621Z,-3.06
2019-01-24T18:38:11.853Z,-3.06
2019-01-24T18:40:40.492Z,-3.10
2019-01-24T18:43:13.491Z,-3.15
2019-01-24T18:45:48.122Z,-3.14
2019-01-24T18:48:16.934Z,-3.23
2019-01-24T18:50:46.500Z,-3.32
2019-01-24T18:53:15.500Z,-3.30
2019-01-24T18:55:44.163Z,-3.32
2019-01-24T18:58:12.874Z,-3.34
2019-01-24T19:00:43.018Z,-3.30
2019-01-24T19:03:13.640Z,-3.30
2019-01-24T19:05:42.394Z,-3.26
2019-01-24T19:08:13.260Z,-3.28
2019-01-24T19:10:41.694Z,-3.27
2019-01-24T19:13:12.411Z,-3.27
2019-01-24T19:15:43.921Z,-3.37
2019-01-24T19:18:12.580Z,-3.36
2019-01-24T19:20:42.803Z,-3.41
2019-01-24T19:23:11.531Z,-3.41
2019-01-24T19:25:40.343Z,-3.35
2019-01-24T19:28:09.001Z,-3.30
2019-01-24T19:30:37.654Z,-3.34
2019-01-24T19:33:06.819Z,-3.43
2019-01-24T19:35:35.644Z,-3.41
2019-01-24T19:38:04.485Z,-3.44
2019-01-24T19:40:34.111Z,-3.45
2019-01-24T19:43:03.135Z,-3.46
2019-01-24T19:45:31.961Z,-3.47
2019-01-24T19:48:00.834Z,-3.47
2019-01-24T19:50:30.227Z,-3.47
2019-01-24T19:52:59.028Z,-3.50
2019-01-24T19:55:29.246Z,-3.52
2019-01-24T19:57:58.163Z,-3.43
2019-01-24T20:00:29.338Z,-3.43
2019-01-24T20:02:59.836Z,-3.57
2019-01-24T20:05:29.245Z,-3.62
2019-01-24T20:07:58.055Z,-3.72
2019-01-24T20:10:29.620Z,-3.70
2019-01-24T20:13:00.520Z,-3.56
2019-01-24T20:15:31.816Z,-3.48
2019-01-24T20:18:00.534Z,-3.49
2019-01-24T20:20:29.373Z,-3.48
2019-01-24T20:23:00.481Z,-3.40
2019-01-24T20:25:31.156Z,-3.47
2019-01-24T20:27:59.857Z,-3.52
2019-01-24T20:30:33.705Z,-3.54
2019-01-24T20:33:02.799Z,-3.52
2019-01-24T20:35:40.500Z,-3.51
2019-01-24T20:38:10.704Z,-3.55
2019-01-24T20:40:39.820Z,-3.47
2019-01-24T20:43:10.786Z,-3.42
2019-01-24T20:45:40.007Z,-3.34
2019-01-24T20:48:08.628Z,-3.45
2019-01-24T20:50:37.335Z,-3.46
2019-01-24T20:53:06.172Z,-3.50
2019-01-24T20:55:35.142Z,-3.50
2019-01-24T20:58:03.898Z,-3.56
2019-01-24T21:00:32.648Z,-3.69
2019-01-24T21:03:01.482Z,-3.71
2019-01-24T21:05:30.206Z,-3.74
2019-01-24T21:07:58.922Z,-3.68
2019-01-24T21:10:29.425Z,-3.71
2019-01-24T21:12:58.144Z,-3.67
2019-01-24T21:15:26.776Z,-3.67
2019-01-24T21:17:55.422Z,-3.78
2019-01-24T21:20:26.446Z,-3.78
2019-01-24T21:22:55.112Z,-3.82
2019-01-24T21:25:24.979Z,-3.80
2019-01-24T21:27:53.658Z,-3.78
2019-01-24T21:30:28.020Z,-3.91
2019-01-24T21:32:56.868Z,-3.93
2019-01-24T21:35:25.509Z,-3.83
2019-01-24T21:37:54.469Z,-3.92
2019-01-24T21:40:24.648Z,-3.97
2019-01-24T21:42:53.328Z,-4.00
2019-01-24T21:45:30.565Z,-3.91
2019-01-24T21:47:59.189Z,-3.90
2019-01-24T21:50:30.304Z,-3.82
2019-01-24T21:52:58.956Z,-4.01
2019-01-24T21:55:27.861Z,-4.10
2019-01-24T21:57:56.773Z,-4.08
2019-01-24T22:00:27.834Z,-4.04
2019-01-24T22:02:56.586Z,-3.99
2019-01-24T22:05:26.975Z,-3.98
2019-01-24T22:07:57.178Z,-3.99
2019-01-24T22:10:39.998Z,-4.11
2019-01-24T22:13:08.636Z,-4.06
2019-01-24T22:15:37.353Z,-4.09
2019-01-24T22:18:09.876Z,-4.20
2019-01-24T22:20:43.302Z,-4.22
2019-01-24T22:23:11.924Z,-4.14
2019-01-24T22:25:45.034Z,-4.16
2019-01-24T22:28:13.696Z,-4.20
2019-01-24T22:30:44.495Z,-4.12
2019-01-24T22:33:13.191Z,-3.99
2019-01-24T22:35:41.856Z,-3.95
2019-01-24T22:38:10.642Z,-3.89
2019-01-24T22:40:39.272Z,-3.89
2019-01-24T22:43:08.065Z,-3.83
2019-01-24T22:45:36.691Z,-3.96
2019-01-24T22:48:06.115Z,-4.02
2019-01-24T22:50:34.723Z,-4.13
2019-01-24T22:53:03.408Z,-4.18
2019-01-24T22:55:32.097Z,-4.14
2019-01-24T22:58:00.760Z,-4.20
2019-01-24T23:00:51.810Z,-4.16
2019-01-24T23:03:26.162Z,-3.97
2019-01-24T23:05:54.804Z,-4.04
2019-01-24T23:08:23.496Z,-4.08
2019-01-24T23:10:52.112Z,-4.12
2019-01-24T23:13:20.889Z,-4.08
2019-01-24T23:15:49.574Z,-4.10
2019-01-24T23:18:18.185Z,-4.12
2019-01-24T23:20:46.907Z,-4.12
2019-01-24T23:23:15.508Z,-4.10
2019-01-24T23:25:44.203Z,-4.10
2019-01-24T23:28:12.842Z,-4.11
2019-01-24T23:30:41.543Z,-4.10
2019-01-24T23:33:10.168Z,-4.18
2019-01-24T23:35:38.826Z,-4.22
2019-01-24T23:38:07.499Z,-4.30
2019-01-24T23:40:36.182Z,-4.32
2019-01-24T23:43:05.238Z,-4.30
2019-01-24T23:45:33.925Z,-4.37
2019-01-24T23:48:02.631Z,-4.37
2019-01-24T23:50:31.310Z,-4.36
2019-01-24T23:52:59.998Z,-4.29
2019-01-24T23:55:28.622Z,-4.26
2019-01-24T23:57:57.325Z,-4.31
